INDIA METEOROLOGICAL DEPARTMENT, R.M.C. NEW DELHI
Dated:24 - 5 - 2017
METARS


Agartala   
VEAT 240600Z 17005KT 5000 HZ SCT020 BKN100 34/27 Q1005 NOSIG =
Ahmedabad  
VAAH 240530Z 28008KT 5000 FU NSC 35/22 Q1007 NOSIG=
Allahabad  
VEAB 240530Z 25005KT 6000 FEW030 BKN090 41/15 Q1005 NOSIG=
Amritsar   
VIAR 240600Z VRB02KT 5000 HZ NSC 36/17 Q1006 NOSIG=
Bangalore  
VOBL 240600Z NIL=
Baroda     
VABO 240600Z 20006KT 6000 NSC 36/21 Q1006 NOSIG=
Bhubaneswar
VEBS 240600Z 23014KT 6000 SCT020 37/26 Q1004 NOSIG =
Bhuntar    
VIBR 240500Z 00000KT 8000 FEW030 26/14 Q1013=
Chennai    
VOMM 240600Z 23008KT 6000 FEW020 SCT100 38/24 Q1005 NOSIG=
Coimbatore 
VOCB 240600Z 23006KT 6000 FEW015 SCT080 32/23 Q1009 NOSIG=
Colombo    
VCBI 240510Z 22011KT 9000 FEW012 BKN016 30/26 Q1009 NOSIG=
Delhi      
VIDP 240600Z 13007KT 3000 HZ FEW040 39/18 Q1005 NOSIG=
Dehradun   
VIDN 240530Z 24004KT 6000 NSC 33/16 Q1008 =
Gauhati    
VEGT 240600Z 01004KT 6000 FEW018 32/26 Q1005 NOSIG=
Gaya       
VEGY 240600Z NIL=
Gaggal     
VIGG 240530Z 07003KT 8000 FEW035 32/14 Q1011=
Fursatganj 
VERB 240600Z VRB02KT 6000 NSC 39/18 Q1002=
Hyderabad  
VOHS 240600Z NIL=
Indore     
VAID 240500Z 34004KT 6000 FEW100 35/20 Q1010 NOSIG =
Jaipur     
VIJP 240600Z 25007KT 4000 HZ NSC 38/14 Q1007 NOSIG=
Kochi      
VOCI 240600Z 24002KT 4000 HZ SCT012 BKN080 32/25 Q1007 NOSIG=
Kolkata    
VECC 240600Z 25012KT 3200 HZ FEW020 SCT100 36/25 Q1004 NOSIG=
Kozhikode  
VOCL 240600Z 23007KT 6000 FEW015 BKN090 32/24 Q1007 NOSIG=
Lucknow    
VILK 240530Z 29003KT 3000 HZ NSC 41/18 Q1003 NOSIG=
Ludhiana   
VILD 240600Z 14004KT 2500 HZ NSC 37/16 Q1005=
Madurai    
VOMD 240600Z 32003KT 6000 FEW020 BKN090 35/23 Q1007 NOSIG=
Mohanbari  
VEMN 240600Z 09003KT 1500 -RA SCT008 SCT018 FEW025CB OVC080 25/24 Q1007 NOSIG=
Mumbai     
VABB 240600Z 26011KT 5000 HZ FEW025 33/26 Q1008 NOSIG=
Nagpur     
VANP 240530Z 02006KT 6000 NSC 42/12 Q1006 NOSIG=
Patna      
VEPT 240600Z 10004KT 4000 HZ NSC 37/24 Q1003 NOSIG=
Safdarjung 
VIDD 240600Z 11008KT 4000 HZ FEW100 38/20 Q1005 NOSIG=
Shimla     
VISM 240500Z 14003KT 6000 FEW050 27/15 Q1017=
Ranchi     
VERC 240600Z 33007KT 6000 HZ FEW020 39/11 Q1008 NOSIG=
Trichy     
VOTR 240600Z 29009KT 6000 FEW016 BKN100 33/25 Q1005 NOSIG=
Trivandrum 
VOTV 240600Z 28008KT 5000 HZ SCT015 FEW025CB 32/27 Q1008 NOSIG=
Udaipur    
VAUD 240600Z 18008KT 5000 HZ NSC 39/16 Q1008 NOSIG=
Varanasi   
VEBN 240530Z VRB01KT 3000 HZ NSC 38/22 Q1004 BECMG 5000 HZ=
Vizag      
VOVZ 240600Z 19010KT 5000 HZ FEW016 36/27 Q1004 NOSIG=
Male       
VRMM 240500Z 25012KT 9999 SCT017 FEW018CB BKN110 29/25 Q1011 CB W,NW TEMPO 4000 SHRA=
Gan        
VRMG 240500Z 19009KT 9999 FEW017 FEW018CB 29/26 Q1011 CB N,WNW NOSIG=
Kathmandu  
VNKT 240600Z NIL=
Dhaka      
VGHS 240600Z NIL=
Colombo    
VCBI 240510Z 22011KT 9000 FEW012 BKN016 30/26 Q1009 NOSIG=
Karachi    
OPKC 240530Z 27020KT 6000 SCT020 33/23 Q1007 TEMPO 27015G25KT=
Lahore     
OPLA 240530Z 13007KT 6000 FEW100 36/16 Q1005 A29.70=
Thoise     
VITX 240530Z 05005KT 6000 FEW100 22/M11 Q1026 NOSIG RMK AC =
Sri Nagar  
VISR 240530Z VRB02KT 6000 FEW025 SCT200 24/13 Q1018 NOSIG=
Jammu      
VIJU 240530Z 14007KT 8000 FEW250 36/14 Q1006 NOSIG=
Jodhpur    
VIJO 240530Z 26008KT 2800 DU FEW100 SCT250 37/21 Q1006 NOSIG=
Bhuj-Rudra 
VABJ 240530Z 26012KT 6000 SKC 36/24 Q1007 NOSIG=
Gorakhpur  
VEGK 240530Z 08003KT 6000 SKC 36/20 Q1004 NOSIG=
Pune       
VAPO 240530Z 30008KT 8000 SCT250 36/14 Q1012 NOSIG=